Terminal Aerodrome Forecast
Issued by NWS

Home | Current Version | Previous Version | Graphics & Text | Print | Product List | Glossary On
Versions: 1 2 3 4 5 6 7 8 9 10 11 12 13 14 15 16
000
FTUS43 KBIS 222300
TAFJMS
TAF
KJMS 222338Z 2300/2324 16008KT P6SM SKC
     FM231400 16012KT P6SM SCT080
     FM231900 17016G24KT P6SM BKN040=

USA.gov is the U.S. government's official web portal to all federal, state and local government web resources and services.